createdAt,value
2018-07-04T00:01:17.777Z,100373
2018-07-04T00:04:04.499Z,100388
2018-07-04T00:06:52.026Z,100374
2018-07-04T00:09:38.775Z,100379
2018-07-04T00:12:25.395Z,100377
2018-07-04T00:15:12.271Z,100374
2018-07-04T00:17:59.865Z,100363
2018-07-04T00:20:46.611Z,100366
2018-07-04T00:23:33.281Z,100367
2018-07-04T00:26:20.019Z,100370
2018-07-04T00:29:06.714Z,100374
2018-07-04T00:31:53.327Z,100382
2018-07-04T00:34:40.829Z,100377
2018-07-04T00:37:27.510Z,100372
2018-07-04T00:40:14.246Z,100384
2018-07-04T00:43:00.862Z,100379
2018-07-04T00:45:47.527Z,100375
2018-07-04T00:48:34.197Z,100381
2018-07-04T00:51:20.996Z,100381
2018-07-04T00:54:07.812Z,100380
2018-07-04T00:56:55.303Z,100375
2018-07-04T00:59:42.044Z,100372
2018-07-04T01:02:29.354Z,100370
2018-07-04T01:05:15.975Z,100372
2018-07-04T01:08:02.668Z,100374
2018-07-04T01:10:49.485Z,100364
2018-07-04T01:13:36.930Z,100367
2018-07-04T01:16:23.619Z,100369
2018-07-04T01:19:10.223Z,100368
2018-07-04T01:21:56.976Z,100362
2018-07-04T01:24:43.590Z,100357
2018-07-04T01:27:30.205Z,100361
2018-07-04T01:30:16.953Z,100357
2018-07-04T01:33:04.384Z,100350
2018-07-04T01:35:51.706Z,100350
2018-07-04T01:38:38.274Z,100349
2018-07-04T01:41:25.118Z,100360
2018-07-04T01:44:12.634Z,100352
2018-07-04T01:46:59.227Z,100359
2018-07-04T01:49:45.932Z,100354
2018-07-04T01:52:32.708Z,100344
2018-07-04T01:55:19.325Z,100347
2018-07-04T01:58:05.941Z,100343
2018-07-04T02:00:52.759Z,100340
2018-07-04T02:03:39.663Z,100346
2018-07-04T02:06:26.318Z,100344
2018-07-04T02:09:12.904Z,100346
2018-07-04T02:11:59.781Z,100343
2018-07-04T02:14:46.556Z,100346
2018-07-04T02:17:33.209Z,100351
2018-07-04T02:20:19.886Z,100350
2018-07-04T02:23:06.670Z,100351
2018-07-04T02:25:53.522Z,100339
2018-07-04T02:28:40.123Z,100340
2018-07-04T02:31:26.864Z,100344
2018-07-04T02:34:13.576Z,100337
2018-07-04T02:37:00.090Z,100342
2018-07-04T02:39:47.603Z,100343
2018-07-04T02:42:34.248Z,100335
2018-07-04T02:45:20.939Z,100341
2018-07-04T02:48:08.455Z,100336
2018-07-04T02:50:55.894Z,100324
2018-07-04T02:53:42.653Z,100324
2018-07-04T02:56:29.487Z,100331
2018-07-04T02:59:16.402Z,100333
2018-07-04T03:02:03.026Z,100333
2018-07-04T03:04:49.904Z,100338
2018-07-04T03:07:36.573Z,100345
2018-07-04T03:10:23.111Z,100345
2018-07-04T03:13:09.773Z,100345
2018-07-04T03:15:56.429Z,100351
2018-07-04T03:18:43.124Z,100355
2018-07-04T03:21:29.735Z,100359
2018-07-04T03:24:16.374Z,100358
2018-07-04T03:27:03.081Z,100351
2018-07-04T03:29:49.866Z,100356
2018-07-04T03:32:36.470Z,100347
2018-07-04T03:35:23.225Z,100349
2018-07-04T03:38:10.033Z,100352
2018-07-04T03:40:56.824Z,100343
2018-07-04T03:43:43.441Z,100337
2018-07-04T03:46:30.808Z,100340
2018-07-04T03:49:17.569Z,100342
2018-07-04T03:52:04.364Z,100343
2018-07-04T03:54:51.049Z,100348
2018-07-04T03:57:37.788Z,100344
2018-07-04T04:00:25.114Z,100349
2018-07-04T04:03:12.625Z,100350
2018-07-04T04:05:59.391Z,100347
2018-07-04T04:08:46.062Z,100348
2018-07-04T04:11:32.748Z,100354
2018-07-04T04:14:19.585Z,100358
2018-07-04T04:17:07.090Z,100351
2018-07-04T04:19:53.852Z,100363
2018-07-04T04:22:40.457Z,100367
2018-07-04T04:25:27.193Z,100363
2018-07-04T04:28:13.929Z,100373
2018-07-04T04:31:00.573Z,100377
2018-07-04T04:33:47.354Z,100373
2018-07-04T04:36:33.953Z,100370
2018-07-04T04:39:21.475Z,100370
2018-07-04T04:42:08.599Z,100376
2018-07-04T04:44:55.949Z,100382
2018-07-04T04:47:42.696Z,100381
2018-07-04T04:50:29.448Z,100381
2018-07-04T04:53:16.824Z,100399
2018-07-04T04:56:03.328Z,100392
2018-07-04T04:58:49.875Z,100386
2018-07-04T05:01:37.453Z,100382
2018-07-04T05:04:24.286Z,100384
2018-07-04T05:07:10.806Z,100380
2018-07-04T05:09:57.657Z,100381
2018-07-04T05:12:44.448Z,100379
2018-07-04T05:15:31.038Z,100372
2018-07-04T05:18:18.427Z,100371
2018-07-04T05:21:05.189Z,100370
2018-07-04T05:23:51.927Z,100364
2018-07-04T05:26:38.551Z,100370
2018-07-04T05:29:25.367Z,100372
2018-07-04T05:32:11.951Z,100369
2018-07-04T05:34:58.675Z,100368
2018-07-04T05:37:45.321Z,100378
2018-07-04T05:40:32.107Z,100378
2018-07-04T05:43:18.846Z,100379
2018-07-04T05:46:05.675Z,100373
2018-07-04T05:48:52.180Z,100362
2018-07-04T05:51:38.929Z,100372
2018-07-04T05:54:25.687Z,100376
2018-07-04T05:57:12.513Z,100371
2018-07-04T05:59:59.745Z,100370
2018-07-04T06:02:46.665Z,100374
2018-07-04T06:05:33.458Z,100369
2018-07-04T06:08:20.194Z,100368
2018-07-04T06:11:06.837Z,100370
2018-07-04T06:13:53.676Z,100374
2018-07-04T06:16:40.398Z,100378
2018-07-04T06:19:27.103Z,100377
2018-07-04T06:22:13.923Z,100376
2018-07-04T06:25:00.671Z,100375
2018-07-04T06:27:47.246Z,100376
2018-07-04T06:30:33.894Z,100371
2018-07-04T06:33:20.670Z,100373
2018-07-04T06:36:07.263Z,100374
2018-07-04T06:38:36.192Z,100375
2018-07-04T06:41:04.217Z,100374
2018-07-04T06:43:32.319Z,100378
2018-07-04T06:46:00.408Z,100373
2018-07-04T06:48:28.520Z,100375
2018-07-04T06:50:56.603Z,100378
2018-07-04T06:53:24.695Z,100382
2018-07-04T06:55:52.786Z,100379
2018-07-04T06:58:20.896Z,100385
2018-07-04T07:00:48.983Z,100383
2018-07-04T07:03:35.682Z,100379
2018-07-04T07:06:22.383Z,100384
2018-07-04T07:09:09.110Z,100384
2018-07-04T07:11:55.800Z,100380
2018-07-04T07:14:42.473Z,100385
2018-07-04T07:17:29.269Z,100389
2018-07-04T07:20:15.986Z,100390
2018-07-04T07:23:02.568Z,100386
2018-07-04T07:25:49.263Z,100388
2018-07-04T07:28:35.821Z,100390
2018-07-04T07:31:22.494Z,100392
2018-07-04T07:34:09.292Z,100397
2018-07-04T07:36:55.902Z,100396
2018-07-04T07:39:42.835Z,100399
2018-07-04T07:42:29.435Z,100382
2018-07-04T07:45:16.143Z,100383
2018-07-04T07:48:02.847Z,100391
2018-07-04T07:50:49.458Z,100384
2018-07-04T07:53:35.994Z,100380
2018-07-04T07:56:22.623Z,100385
2018-07-04T07:59:09.387Z,100381
2018-07-04T08:01:56.846Z,100379
2018-07-04T08:04:43.295Z,100378
2018-07-04T08:07:30.011Z,100384
2018-07-04T08:10:16.617Z,100386
2018-07-04T08:13:03.213Z,100379
2018-07-04T08:15:50.040Z,100383
2018-07-04T08:18:37.592Z,100380
2018-07-04T08:21:24.267Z,100378
2018-07-04T08:24:10.937Z,100383
2018-07-04T08:26:57.630Z,100387
2018-07-04T08:29:44.422Z,100384
2018-07-04T08:32:31.289Z,100390
2018-07-04T08:35:17.768Z,100382
2018-07-04T08:38:04.510Z,100389
2018-07-04T08:40:51.338Z,100393
2018-07-04T08:43:38.078Z,100391
2018-07-04T08:46:25.417Z,100390
2018-07-04T08:49:12.389Z,100384
2018-07-04T08:51:59.237Z,100392
2018-07-04T08:54:45.943Z,100393
2018-07-04T08:57:32.574Z,100395
2018-07-04T09:00:19.374Z,100397
2018-07-04T09:03:06.743Z,100395
2018-07-04T09:05:53.355Z,100399
2018-07-04T09:08:40.127Z,100398
2018-07-04T09:11:26.852Z,100393
2018-07-04T09:14:14.377Z,100402
2018-07-04T09:17:01.642Z,100404
2018-07-04T09:19:48.493Z,100409
2018-07-04T09:22:35.111Z,100395
2018-07-04T09:25:22.172Z,100403
2018-07-04T09:28:08.761Z,100394
2018-07-04T09:30:55.533Z,100395
2018-07-04T09:33:42.390Z,100448
2018-07-04T09:36:29.167Z,100396
2018-07-04T09:39:16.782Z,100396
2018-07-04T09:42:03.594Z,100397
2018-07-04T09:44:50.269Z,100401
2018-07-04T09:47:36.953Z,100394
2018-07-04T09:50:23.719Z,100393
2018-07-04T09:53:10.253Z,100400
2018-07-04T09:55:57.017Z,100389
2018-07-04T09:58:43.767Z,100386
2018-07-04T10:01:31.385Z,100392
2018-07-04T10:04:18.212Z,100387
2018-07-04T10:07:05.740Z,100379
2018-07-04T10:09:53.012Z,100377
2018-07-04T10:12:39.782Z,100377
2018-07-04T10:15:26.581Z,100364
2018-07-04T10:18:13.569Z,100365
2018-07-04T10:21:00.301Z,100354
2018-07-04T10:23:47.040Z,100353
2018-07-04T10:26:33.629Z,100347
2018-07-04T10:29:20.933Z,100347
2018-07-04T10:32:07.546Z,100348
2018-07-04T10:34:54.365Z,100338
2018-07-04T10:37:41.178Z,100343
2018-07-04T10:40:27.934Z,100342
2018-07-04T10:43:14.591Z,100338
2018-07-04T10:46:02.092Z,100335
2018-07-04T10:48:43.312Z,100335
2018-07-04T10:51:30.090Z,100317
2018-07-04T10:54:17.531Z,100316
2018-07-04T10:57:04.238Z,100307
2018-07-04T10:59:50.840Z,100312
2018-07-04T11:02:37.640Z,100305
2018-07-04T11:05:24.346Z,100301
2018-07-04T11:08:11.177Z,100289
2018-07-04T11:10:58.395Z,100297
2018-07-04T11:13:45.187Z,100298
2018-07-04T11:16:31.809Z,100296
2018-07-04T11:19:18.546Z,100293
2018-07-04T11:22:05.114Z,100288
2018-07-04T11:24:51.947Z,100297
2018-07-04T11:27:38.553Z,100285
2018-07-04T11:30:25.170Z,100288
2018-07-04T11:33:12.775Z,100282
2018-07-04T11:35:59.518Z,100282
2018-07-04T11:38:46.108Z,100281
2018-07-04T11:41:33.539Z,100286
2018-07-04T11:44:20.357Z,100291
2018-07-04T11:46:48.456Z,100283
2018-07-04T11:49:16.672Z,100281
2018-07-04T11:51:45.626Z,100277
2018-07-04T11:54:13.719Z,100289
2018-07-04T11:56:41.807Z,100288
2018-07-04T11:59:09.895Z,100286
2018-07-04T12:01:38.749Z,100300
2018-07-04T12:04:25.588Z,100321
2018-07-04T12:07:01.698Z,100344
2018-07-04T12:09:30.536Z,100347
2018-07-04T12:11:58.617Z,100342
2018-07-04T12:14:27.449Z,100347
2018-07-04T12:16:55.537Z,100334
2018-07-04T12:19:23.623Z,100332
2018-07-04T12:21:51.719Z,100330
2018-07-04T12:24:19.834Z,100333
2018-07-04T12:26:47.972Z,100338
2018-07-04T12:29:16.044Z,100345
2018-07-04T12:31:44.880Z,100336
2018-07-04T12:34:12.985Z,100335
2018-07-04T12:36:41.914Z,100340
2018-07-04T12:39:10.004Z,100337
2018-07-04T12:41:38.081Z,100342
2018-07-04T12:44:06.190Z,100338
2018-07-04T12:46:34.439Z,100350
2018-07-04T12:49:02.502Z,100353
2018-07-04T12:51:30.604Z,100376
2018-07-04T12:53:58.759Z,100386
2018-07-04T12:56:45.535Z,100393
2018-07-04T12:59:32.315Z,100396
2018-07-04T13:02:19.040Z,100387
2018-07-04T13:05:05.691Z,100376
2018-07-04T13:07:52.591Z,100368
2018-07-04T13:10:39.287Z,100381
2018-07-04T13:13:25.785Z,100387
2018-07-04T13:16:13.255Z,100395
2018-07-04T13:19:00.046Z,100393
2018-07-04T13:21:46.801Z,100393
2018-07-04T13:24:27.917Z,100393
2018-07-04T13:27:14.602Z,100394
2018-07-04T13:30:02.211Z,100388
2018-07-04T13:32:49.026Z,100375
2018-07-04T13:35:30.134Z,100363
2018-07-04T13:38:16.839Z,100355
2018-07-04T13:41:04.319Z,100346
2018-07-04T13:43:50.943Z,100343
2018-07-04T13:46:37.578Z,100352
2018-07-04T13:49:25.110Z,100350
2018-07-04T13:52:11.767Z,100350
2018-07-04T13:54:58.356Z,100345
2018-07-04T13:57:45.135Z,100340
2018-07-04T14:00:31.952Z,100339
2018-07-04T14:03:19.624Z,100331
2018-07-04T14:06:06.259Z,100330
2018-07-04T14:08:53.111Z,100345
2018-07-04T14:11:39.998Z,100335
2018-07-04T14:14:26.525Z,100331
2018-07-04T14:17:13.163Z,100335
2018-07-04T14:19:59.898Z,100323
2018-07-04T14:22:46.697Z,100320
2018-07-04T14:25:33.479Z,100318
2018-07-04T14:28:20.155Z,100310
2018-07-04T14:31:06.898Z,100302
2018-07-04T14:33:53.711Z,100310
2018-07-04T14:36:40.560Z,100301
2018-07-04T14:39:27.250Z,100305
2018-07-04T14:42:13.938Z,100295
2018-07-04T14:45:00.793Z,100292
2018-07-04T14:47:47.442Z,100287
2018-07-04T14:50:34.837Z,100276
2018-07-04T14:53:21.684Z,100266
2018-07-04T14:56:08.456Z,100267
2018-07-04T14:58:55.184Z,100270
2018-07-04T15:01:42.601Z,100266
2018-07-04T15:04:29.506Z,100262
2018-07-04T15:07:16.148Z,100264
2018-07-04T15:10:03.557Z,100279
2018-07-04T15:12:49.984Z,100278
2018-07-04T15:15:36.611Z,100290
2018-07-04T15:18:24.162Z,100302
2018-07-04T15:21:10.865Z,100296
2018-07-04T15:23:57.523Z,100304
2018-07-04T15:26:44.262Z,100314
2018-07-04T15:29:31.014Z,100320
2018-07-04T15:32:18.541Z,100316
2018-07-04T15:35:05.426Z,100319
2018-07-04T15:37:52.123Z,100322
2018-07-04T15:40:39.094Z,100316
2018-07-04T15:43:26.692Z,100297
2018-07-04T15:46:13.497Z,100291
2018-07-04T15:49:00.327Z,100285
2018-07-04T15:51:47.751Z,100277
2018-07-04T15:54:34.639Z,100272
2018-07-04T15:57:21.441Z,100257
2018-07-04T16:00:08.991Z,100267
2018-07-04T16:02:55.749Z,100277
2018-07-04T16:05:42.535Z,100282
2018-07-04T16:08:29.925Z,100290
2018-07-04T16:11:16.691Z,100293
2018-07-04T16:14:03.452Z,100349
2018-07-04T16:16:44.650Z,100375
2018-07-04T16:19:32.193Z,100398
2018-07-04T16:22:19.005Z,100388
2018-07-04T16:25:06.364Z,100387
2018-07-04T16:27:53.021Z,100378
2018-07-04T16:30:39.733Z,100387
2018-07-04T16:33:26.398Z,100364
2018-07-04T16:36:12.993Z,100368
2018-07-04T16:38:59.698Z,100361
2018-07-04T16:41:47.264Z,100350
2018-07-04T16:44:34.066Z,100330
2018-07-04T16:47:20.560Z,100311
2018-07-04T16:50:07.118Z,100283
2018-07-04T16:52:53.920Z,100276
2018-07-04T16:55:40.687Z,100260
2018-07-04T16:58:27.263Z,100233
2018-07-04T17:01:14.667Z,100213
2018-07-04T17:04:01.233Z,100210
2018-07-04T17:06:48.090Z,100195
2018-07-04T17:09:34.832Z,100186
2018-07-04T17:12:21.825Z,100192
2018-07-04T17:15:08.622Z,100191
2018-07-04T17:17:56.064Z,100187
2018-07-04T17:20:42.983Z,100191
2018-07-04T17:23:29.784Z,100188
2018-07-04T17:26:16.456Z,100188
2018-07-04T17:29:03.327Z,100198
2018-07-04T17:31:50.764Z,100220
2018-07-04T17:34:37.374Z,100216
2018-07-04T17:37:24.289Z,100216
2018-07-04T17:40:11.152Z,100211
2018-07-04T17:42:57.985Z,100206
2018-07-04T17:45:45.396Z,100203
2018-07-04T17:48:32.320Z,100221
2018-07-04T17:51:19.052Z,100227
2018-07-04T17:54:05.718Z,100228
2018-07-04T17:56:52.605Z,100234
2018-07-04T17:59:39.197Z,100231
2018-07-04T18:02:25.823Z,100229
2018-07-04T18:05:12.547Z,100226
2018-07-04T18:07:59.180Z,100219
2018-07-04T18:10:45.773Z,100211
2018-07-04T18:13:32.492Z,100205
2018-07-04T18:16:19.914Z,100210
2018-07-04T18:19:06.637Z,100209
2018-07-04T18:21:54.361Z,100217
2018-07-04T18:24:41.205Z,100227
2018-07-04T18:27:27.722Z,100226
2018-07-04T18:30:14.527Z,100224
2018-07-04T18:33:01.289Z,100220
2018-07-04T18:35:48.638Z,100226
2018-07-04T18:38:35.396Z,100232
2018-07-04T18:41:22.137Z,100232
2018-07-04T18:44:09.841Z,100227
2018-07-04T18:46:56.640Z,100227
2018-07-04T18:49:43.383Z,100223
2018-07-04T18:52:31.379Z,100219
2018-07-04T18:55:17.994Z,100228
2018-07-04T18:58:04.624Z,100230
2018-07-04T19:00:51.327Z,100234
2018-07-04T19:03:37.990Z,100239
2018-07-04T19:06:24.776Z,100240
2018-07-04T19:09:11.453Z,100250
2018-07-04T19:11:58.116Z,100238
2018-07-04T19:14:44.935Z,100235
2018-07-04T19:17:31.706Z,100233
2018-07-04T19:20:18.956Z,100236
2018-07-04T19:23:05.722Z,100225
2018-07-04T19:25:52.610Z,100227
2018-07-04T19:28:39.313Z,100217
2018-07-04T19:31:25.799Z,100221
2018-07-04T19:34:12.503Z,100212
2018-07-04T19:36:59.366Z,100197
2018-07-04T19:39:45.974Z,100204
2018-07-04T19:42:33.472Z,100202
2018-07-04T19:45:20.249Z,100198
2018-07-04T19:48:07.196Z,100212
2018-07-04T19:50:53.848Z,100216
2018-07-04T19:53:40.615Z,100220
2018-07-04T19:56:27.461Z,100230
2018-07-04T19:59:14.330Z,100208
2018-07-04T20:02:00.961Z,100195
2018-07-04T20:04:47.816Z,100193
2018-07-04T20:07:34.643Z,100185
2018-07-04T20:10:22.300Z,100184
2018-07-04T20:13:08.921Z,100189
2018-07-04T20:15:55.550Z,100202
2018-07-04T20:18:42.215Z,100200
2018-07-04T20:21:29.711Z,100205
2018-07-04T20:24:16.338Z,100219
2018-07-04T20:27:04.093Z,100215
2018-07-04T20:29:51.357Z,100210
2018-07-04T20:32:37.932Z,100218
2018-07-04T20:35:24.630Z,100229
2018-07-04T20:38:11.248Z,100240
2018-07-04T20:40:57.946Z,100233
2018-07-04T20:43:44.556Z,100232
2018-07-04T20:46:31.339Z,100242
2018-07-04T20:49:18.161Z,100260
2018-07-04T20:52:05.710Z,100265
2018-07-04T20:54:52.510Z,100259
2018-07-04T20:57:39.250Z,100261
2018-07-04T21:00:25.985Z,100262
2018-07-04T21:03:13.790Z,100246
2018-07-04T21:05:55.207Z,100239
2018-07-04T21:08:41.881Z,100232
2018-07-04T21:11:23.294Z,100244
2018-07-04T21:14:10.109Z,100244
2018-07-04T21:16:56.878Z,100251
2018-07-04T21:19:43.744Z,100252
2018-07-04T21:22:31.286Z,100256
2018-07-04T21:25:17.891Z,100255
2018-07-04T21:28:04.901Z,100243
2018-07-04T21:30:52.364Z,100256
2018-07-04T21:33:39.114Z,100269
2018-07-04T21:36:25.648Z,100268
2018-07-04T21:39:13.138Z,100283
2018-07-04T21:41:59.981Z,100276
2018-07-04T21:44:47.380Z,100261
2018-07-04T21:47:34.029Z,100248
2018-07-04T21:50:20.850Z,100255
2018-07-04T21:53:07.447Z,100259
2018-07-04T21:55:54.150Z,100268
2018-07-04T21:58:40.750Z,100277
2018-07-04T22:01:27.581Z,100279
2018-07-04T22:04:14.628Z,100267
2018-07-04T22:07:01.102Z,100271
2018-07-04T22:09:48.762Z,100265
2018-07-04T22:12:35.533Z,100274
2018-07-04T22:15:22.345Z,100271
2018-07-04T22:18:09.666Z,100269
2018-07-04T22:20:56.588Z,100270
2018-07-04T22:23:44.229Z,100269
2018-07-04T22:26:31.634Z,100256
2018-07-04T22:29:18.438Z,100249
2018-07-04T22:32:05.147Z,100247
2018-07-04T22:34:51.858Z,100245
2018-07-04T22:37:38.340Z,100240
2018-07-04T22:40:25.092Z,100244
2018-07-04T22:43:11.890Z,100238
2018-07-04T22:45:58.742Z,100241
2018-07-04T22:48:45.579Z,100235
2018-07-04T22:51:32.335Z,100237
2018-07-04T22:54:18.978Z,100241
2018-07-04T22:57:05.583Z,100233
2018-07-04T22:59:52.177Z,100222
2018-07-04T23:02:38.936Z,100228
2018-07-04T23:05:26.472Z,100218
2018-07-04T23:08:13.727Z,100214
2018-07-04T23:11:00.456Z,100207
2018-07-04T23:13:47.202Z,100202
2018-07-04T23:16:34.023Z,100206
2018-07-04T23:19:20.707Z,100203
2018-07-04T23:22:07.447Z,100197
2018-07-04T23:24:54.269Z,100210
2018-07-04T23:27:41.067Z,100204
2018-07-04T23:30:28.418Z,100200
2018-07-04T23:33:15.010Z,100197
2018-07-04T23:36:01.799Z,100207
2018-07-04T23:38:48.414Z,100210
2018-07-04T23:41:35.058Z,100210
2018-07-04T23:44:21.719Z,100200
2018-07-04T23:47:08.536Z,100204
2018-07-04T23:49:55.839Z,100194
2018-07-04T23:52:42.520Z,100198
2018-07-04T23:55:29.141Z,100194
2018-07-04T23:58:15.911Z,100195
